AEE2KR LGPZ-LGKR
Flight info
| Callsign | AEE2KR |
|---|---|
| Flight time | 0h 17m |
| Altitude | 14000 |
| Route | MALED |
| Aircraft | A320/M-SDE3FGHIRWY/LB1 |
Departure
| Time | 2026-04-22 17:52 |
|---|---|
| Airport | Aktion National Airport (LGPZ) |
Arrival
| Time | 2026-04-22 18:09 |
|---|---|
| Airport | Corfu Ioannis Kapodistrias International Airport (LGKR) |
| Time | Latitude | Longitude | Altitude | Speed | Heading |
|---|---|---|---|---|---|
| 2026-04-22 17:27 | 38.93024 | 20.77241 | 20 ft | 0 kts | 339° |
| 2026-04-22 17:44 | 38.93004 | 20.77251 | 19 ft | 4 kts | 335° |
| 2026-04-22 17:45 | 38.92980 | 20.77266 | 21 ft | 4 kts | 336° |
| 2026-04-22 17:45 | 38.92955 | 20.77276 | 20 ft | 4 kts | 3° |
| 2026-04-22 17:45 | 38.92943 | 20.77271 | 19 ft | 0 kts | 68° |
| 2026-04-22 17:47 | 38.92943 | 20.77273 | 19 ft | 1 kts | 68° |
| 2026-04-22 17:48 | 38.92951 | 20.77299 | 18 ft | 6 kts | 69° |
| 2026-04-22 17:48 | 38.92968 | 20.77356 | 19 ft | 5 kts | 70° |
| 2026-04-22 17:48 | 38.92967 | 20.77396 | 18 ft | 5 kts | 117° |
| 2026-04-22 17:48 | 38.92922 | 20.77430 | 17 ft | 11 kts | 156° |
| 2026-04-22 17:49 | 38.92881 | 20.77503 | 16 ft | 13 kts | 86° |
| 2026-04-22 17:49 | 38.92910 | 20.77615 | 17 ft | 14 kts | 68° |
| 2026-04-22 17:49 | 38.92935 | 20.77718 | 18 ft | 9 kts | 93° |
| 2026-04-22 17:49 | 38.92888 | 20.77769 | 19 ft | 9 kts | 155° |
| 2026-04-22 17:50 | 38.92842 | 20.77825 | 20 ft | 11 kts | 101° |
| 2026-04-22 17:50 | 38.92864 | 20.77933 | 20 ft | 14 kts | 68° |
| 2026-04-22 17:50 | 38.92891 | 20.78018 | 22 ft | 10 kts | 68° |
| 2026-04-22 17:50 | 38.92927 | 20.78095 | 20 ft | 10 kts | 25° |
| 2026-04-22 17:51 | 38.92990 | 20.78053 | 19 ft | 12 kts | 314° |
| 2026-04-22 17:51 | 38.93023 | 20.77979 | 19 ft | 6 kts | 263° |
| 2026-04-22 17:51 | 38.93009 | 20.77930 | 20 ft | 0 kts | 248° |
| 2026-04-22 17:51 | 38.93007 | 20.77925 | 20 ft | 3 kts | 248° |
| 2026-04-22 17:52 | 38.92915 | 20.77631 | 17 ft | 71 kts | 248° |
| 2026-04-22 17:52 | 38.92653 | 20.76798 | 19 ft | 126 kts | 248° |
| 2026-04-22 17:52 | 38.92280 | 20.75619 | 221 ft | 151 kts | 248° |
| 2026-04-22 17:52 | 38.91885 | 20.74373 | 868 ft | 146 kts | 250° |
| 2026-04-22 17:53 | 38.91710 | 20.73120 | 1490 ft | 145 kts | 278° |
| 2026-04-22 17:53 | 38.92060 | 20.71872 | 1914 ft | 161 kts | 307° |
| 2026-04-22 17:53 | 38.92850 | 20.70719 | 2191 ft | 183 kts | 308° |
| 2026-04-22 17:53 | 38.93682 | 20.69352 | 2452 ft | 206 kts | 306° |
| 2026-04-22 17:54 | 38.94600 | 20.67790 | 2792 ft | 231 kts | 306° |
| 2026-04-22 17:54 | 38.95615 | 20.66067 | 3386 ft | 249 kts | 306° |
| 2026-04-22 17:54 | 38.96675 | 20.64284 | 4300 ft | 253 kts | 306° |
| 2026-04-22 17:54 | 38.97756 | 20.62478 | 5248 ft | 257 kts | 306° |
| 2026-04-22 17:55 | 38.98852 | 20.60653 | 6221 ft | 259 kts | 307° |
| 2026-04-22 17:55 | 38.99748 | 20.59161 | 6975 ft | 260 kts | 306° |
| 2026-04-22 17:55 | 39.00574 | 20.57788 | 7594 ft | 260 kts | 306° |
| 2026-04-22 17:55 | 39.01687 | 20.55939 | 7635 ft | 261 kts | 306° |
| 2026-04-22 17:56 | 39.02778 | 20.54130 | 7510 ft | 259 kts | 306° |
| 2026-04-22 17:56 | 39.03881 | 20.52296 | 7393 ft | 259 kts | 306° |
| 2026-04-22 17:56 | 39.04982 | 20.50468 | 7268 ft | 259 kts | 306° |
| 2026-04-22 17:56 | 39.06085 | 20.48636 | 7143 ft | 259 kts | 306° |
| 2026-04-22 17:57 | 39.07186 | 20.46804 | 7019 ft | 258 kts | 306° |
| 2026-04-22 17:57 | 39.08278 | 20.44988 | 6908 ft | 255 kts | 306° |
| 2026-04-22 17:57 | 39.09361 | 20.43188 | 6771 ft | 254 kts | 306° |
| 2026-04-22 17:57 | 39.10438 | 20.41394 | 6660 ft | 254 kts | 306° |
| 2026-04-22 17:58 | 39.11517 | 20.39596 | 6536 ft | 254 kts | 306° |
| 2026-04-22 17:58 | 39.12594 | 20.37796 | 6411 ft | 254 kts | 306° |
| 2026-04-22 17:58 | 39.13673 | 20.35993 | 6293 ft | 254 kts | 306° |
| 2026-04-22 17:58 | 39.14750 | 20.34197 | 6163 ft | 254 kts | 306° |
| 2026-04-22 17:59 | 39.15816 | 20.32422 | 6035 ft | 254 kts | 306° |
| 2026-04-22 17:59 | 39.16895 | 20.30619 | 5925 ft | 254 kts | 306° |
| 2026-04-22 17:59 | 39.17976 | 20.28814 | 5777 ft | 254 kts | 306° |
| 2026-04-22 17:59 | 39.19057 | 20.27004 | 5657 ft | 255 kts | 306° |
| 2026-04-22 18:00 | 39.19772 | 20.25809 | 5572 ft | 255 kts | 306° |
| 2026-04-22 18:00 | 39.21220 | 20.23386 | 5398 ft | 255 kts | 306° |
| 2026-04-22 18:00 | 39.22303 | 20.21571 | 5275 ft | 255 kts | 306° |
| 2026-04-22 18:00 | 39.23382 | 20.19755 | 5155 ft | 256 kts | 306° |
| 2026-04-22 18:01 | 39.24456 | 20.17949 | 5030 ft | 257 kts | 307° |
| 2026-04-22 18:01 | 39.25545 | 20.16121 | 4904 ft | 257 kts | 307° |
| 2026-04-22 18:01 | 39.26631 | 20.14292 | 4782 ft | 257 kts | 306° |
| 2026-04-22 18:01 | 39.27715 | 20.12465 | 4643 ft | 253 kts | 307° |
| 2026-04-22 18:02 | 39.28786 | 20.10666 | 4529 ft | 251 kts | 307° |
| 2026-04-22 18:02 | 39.29842 | 20.08891 | 4385 ft | 247 kts | 307° |
| 2026-04-22 18:02 | 39.30884 | 20.07132 | 4199 ft | 247 kts | 307° |
| 2026-04-22 18:02 | 39.31939 | 20.05353 | 3757 ft | 252 kts | 307° |
| 2026-04-22 18:03 | 39.33004 | 20.03557 | 3551 ft | 247 kts | 308° |
| 2026-04-22 18:03 | 39.34030 | 20.01829 | 3492 ft | 236 kts | 308° |
| 2026-04-22 18:03 | 39.35003 | 20.00193 | 3420 ft | 224 kts | 309° |
| 2026-04-22 18:03 | 39.36105 | 19.98856 | 3327 ft | 213 kts | 328° |
| 2026-04-22 18:04 | 39.37448 | 19.98164 | 3233 ft | 205 kts | 348° |
| 2026-04-22 18:04 | 39.38861 | 19.98027 | 3138 ft | 202 kts | 357° |
| 2026-04-22 18:04 | 39.40258 | 19.97950 | 3045 ft | 201 kts | 356° |
| 2026-04-22 18:04 | 39.41651 | 19.97869 | 2947 ft | 199 kts | 355° |
| 2026-04-22 18:05 | 39.42998 | 19.97567 | 2820 ft | 198 kts | 343° |
| 2026-04-22 18:05 | 39.44294 | 19.97078 | 2622 ft | 187 kts | 343° |
| 2026-04-22 18:05 | 39.45510 | 19.96619 | 2465 ft | 183 kts | 344° |
| 2026-04-22 18:05 | 39.46721 | 19.96163 | 2298 ft | 179 kts | 344° |
| 2026-04-22 18:06 | 39.47908 | 19.95715 | 2132 ft | 174 kts | 343° |
| 2026-04-22 18:06 | 39.49013 | 19.95300 | 1980 ft | 156 kts | 344° |
| 2026-04-22 18:06 | 39.50002 | 19.94929 | 1841 ft | 142 kts | 344° |
| 2026-04-22 18:06 | 39.50920 | 19.94584 | 1724 ft | 135 kts | 344° |
| 2026-04-22 18:07 | 39.51729 | 19.94261 | 1582 ft | 133 kts | 342° |
| 2026-04-22 18:07 | 39.52502 | 19.93868 | 1404 ft | 133 kts | 338° |
| 2026-04-22 18:07 | 39.53353 | 19.93405 | 1234 ft | 133 kts | 338° |
| 2026-04-22 18:07 | 39.54216 | 19.92991 | 1022 ft | 132 kts | 340° |
| 2026-04-22 18:08 | 39.55093 | 19.92653 | 809 ft | 131 kts | 343° |
| 2026-04-22 18:08 | 39.55990 | 19.92358 | 646 ft | 136 kts | 343° |
| 2026-04-22 18:08 | 39.56891 | 19.92119 | 530 ft | 131 kts | 342° |
| 2026-04-22 18:08 | 39.57786 | 19.91861 | 331 ft | 132 kts | 344° |
| 2026-04-22 18:09 | 39.58697 | 19.91604 | 172 ft | 134 kts | 345° |
| 2026-04-22 18:09 | 39.59603 | 19.91370 | 27 ft | 129 kts | 346° |
| 2026-04-22 18:09 | 39.60338 | 19.91175 | 20 ft | 84 kts | 349° |
| 2026-04-22 18:09 | 39.60707 | 19.91079 | 20 ft | 34 kts | 348° |
| 2026-04-22 18:10 | 39.60928 | 19.91022 | 19 ft | 22 kts | 348° |
| 2026-04-22 18:10 | 39.61028 | 19.91038 | 21 ft | 13 kts | 46° |
| 2026-04-22 18:10 | 39.61054 | 19.91090 | 19 ft | 14 kts | 64° |
| 2026-04-22 18:10 | 39.61018 | 19.91133 | 19 ft | 9 kts | 168° |
| 2026-04-22 18:11 | 39.61014 | 19.91134 | 19 ft | 0 kts | 168° |
| 2026-04-22 18:11 | 39.61006 | 19.91136 | 19 ft | 3 kts | 168° |
| 2026-04-22 18:11 | 39.60976 | 19.91144 | 19 ft | 7 kts | 168° |
| 2026-04-22 18:11 | 39.60920 | 19.91159 | 19 ft | 6 kts | 168° |
| 2026-04-22 18:12 | 39.60856 | 19.91176 | 18 ft | 13 kts | 168° |
| 2026-04-22 18:12 | 39.60768 | 19.91200 | 18 ft | 0 kts | 168° |
| 2026-04-22 18:12 | 39.60757 | 19.91206 | 18 ft | 4 kts | 149° |
| 2026-04-22 18:12 | 39.60750 | 19.91252 | 18 ft | 6 kts | 86° |
| 2026-04-22 18:13 | 39.60755 | 19.91297 | 20 ft | 1 kts | 79° |
| 2026-04-22 18:13 | 39.60757 | 19.91307 | 20 ft | 2 kts | 78° |
| 2026-04-22 18:13 | 39.60759 | 19.91319 | 19 ft | 0 kts | 78° |